Time;durP1;ratioP1;P1;durP2;ratioP2;P2;SDS_P1;SDS_P2;PMS_P1;PMS_P2;Temp;Humidity;BMP_temperature;BMP_pressure;BME280_temperature;BME280_humidity;BME280_pressure;Samples;Min_cycle;Max_cycle;Signal;HPM_P1;HPM_P2
2023/03/01 00:03:17;;;;;;;19.37;17.33;;;2.60;85.70;;;;;;10478556;28;20220;-81
2023/03/01 00:08:19;;;;;;;19.70;17.80;;;2.50;85.60;;;;;;10480119;28;20212;-80
2023/03/01 00:13:21;;;;;;;19.60;17.60;;;2.40;85.60;;;;;;10487608;28;20219;-81
2023/03/01 00:18:24;;;;;;;18.80;16.93;;;2.40;85.80;;;;;;10506181;28;20274;-80
2023/03/01 00:23:27;;;;;;;20.50;18.33;;;2.30;86.10;;;;;;10483125;28;20312;-80
2023/03/01 00:28:29;;;;;;;19.00;17.00;;;2.30;86.60;;;;;;10502357;28;20232;-80
2023/03/01 00:33:33;;;;;;;19.87;17.87;;;2.30;86.30;;;;;;10456240;28;20702;-81
2023/03/01 00:38:36;;;;;;;19.73;17.67;;;2.30;86.20;;;;;;10462965;28;20278;-78
2023/03/01 00:43:39;;;;;;;18.83;16.93;;;2.30;86.20;;;;;;10476663;28;20217;-80
2023/03/01 00:48:42;;;;;;;29.53;23.10;;;2.20;86.30;;;;;;10473955;28;20286;-80
2023/03/01 00:53:45;;;;;;;18.13;16.30;;;2.10;86.50;;;;;;10476507;28;20217;-81
2023/03/01 00:58:47;;;;;;;20.07;18.07;;;2.10;86.80;;;;;;10457489;28;20304;-78
2023/03/01 01:03:53;;;;;;;18.73;16.93;;;2.20;86.70;;;;;;10493806;28;20217;-79
2023/03/01 01:08:56;;;;;;;19.47;17.40;;;2.10;86.60;;;;;;10503331;28;20272;-81
2023/03/01 01:13:58;;;;;;;19.67;17.77;;;2.10;86.60;;;;;;10460642;28;20216;-79
2023/03/01 01:19:02;;;;;;;19.23;17.20;;;2.10;87.10;;;;;;10489527;28;20212;-78
2023/03/01 01:24:05;;;;;;;20.73;18.57;;;2.10;86.80;;;;;;10498467;28;20632;-78
2023/03/01 01:29:08;;;;;;;19.37;17.43;;;2.00;87.10;;;;;;10473255;28;20210;-80
2023/03/01 01:34:15;;;;;;;20.10;18.17;;;2.00;88.50;;;;;;10470168;28;20715;-80
2023/03/01 01:39:18;;;;;;;20.30;18.30;;;2.10;87.70;;;;;;10471461;28;20222;-79
2023/03/01 01:44:23;;;;;;;19.90;17.90;;;2.10;86.80;;;;;;10483394;28;20267;-79
2023/03/01 01:49:34;;;;;;;19.30;17.30;;;2.10;86.70;;;;;;10470310;28;20568;-79
2023/03/01 01:54:42;;;;;;;19.50;17.63;;;2.00;87.30;;;;;;10454809;28;20268;-79
2023/03/01 01:59:48;;;;;;;22.20;19.90;;;1.90;87.10;;;;;;10485568;28;20281;-80
2023/03/01 02:04:59;;;;;;;20.60;18.50;;;1.80;87.50;;;;;;10497684;28;20244;-79
2023/03/01 02:10:02;;;;;;;20.73;18.63;;;1.90;87.50;;;;;;10496093;28;20195;-78
2023/03/01 02:15:06;;;;;;;21.30;18.43;;;2.00;87.60;;;;;;10471006;28;20248;-79
2023/03/01 02:20:21;;;;;;;20.97;18.60;;;2.10;87.90;;;;;;10489611;28;20266;-79
2023/03/01 02:25:36;;;;;;;21.40;19.20;;;2.10;87.90;;;;;;10471706;28;20247;-80
2023/03/01 02:31:41;;;;;;;19.97;17.97;;;2.20;88.40;;;;;;10490203;22;20217;-88
2023/03/01 02:36:08;;;;;;;20.90;18.87;;;2.30;87.80;;;;;;10454273;28;20239;-83
2023/03/01 02:41:12;;;;;;;22.43;19.13;;;2.50;87.80;;;;;;10457840;28;20233;-83
2023/03/01 02:46:18;;;;;;;20.33;18.20;;;2.60;87.90;;;;;;10456445;28;20197;-83
2023/03/01 02:51:43;;;;;;;20.77;18.60;;;2.70;87.60;;;;;;10472545;28;20217;-83
2023/03/01 02:56:48;;;;;;;20.00;18.10;;;2.80;86.60;;;;;;10471823;28;20339;-83
2023/03/01 03:01:53;;;;;;;21.63;19.43;;;2.90;87.50;;;;;;10416764;28;20215;-83
2023/03/01 03:06:55;;;;;;;22.20;19.90;;;2.90;87.30;;;;;;10415810;28;20194;-84
2023/03/01 03:11:58;;;;;;;31.47;27.07;;;3.00;86.60;;;;;;10450181;28;20211;-83
2023/03/01 03:17:06;;;;;;;21.23;19.07;;;3.10;87.30;;;;;;10416253;28;20214;-84
2023/03/01 03:22:08;;;;;;;20.80;18.60;;;3.10;87.50;;;;;;10416092;28;20223;-83
2023/03/01 03:27:11;;;;;;;20.83;18.73;;;3.20;85.90;;;;;;10433649;28;20254;-83
2023/03/01 03:32:14;;;;;;;20.27;18.37;;;3.30;85.60;;;;;;10446649;28;20227;-83
2023/03/01 03:42:32;;;;;;;21.43;19.20;;;3.20;86.00;;;;;;10432754;28;20217;-83
2023/03/01 03:47:36;;;;;;;22.70;20.30;;;3.20;85.30;;;;;;10458329;28;20189;-83
2023/03/01 03:52:38;;;;;;;20.93;18.53;;;3.20;85.60;;;;;;10423139;28;20246;-84
2023/03/01 03:57:42;;;;;;;22.00;19.87;;;3.30;86.20;;;;;;10443554;28;20233;-84
2023/03/01 04:02:46;;;;;;;20.77;18.77;;;3.30;86.10;;;;;;10437397;28;20281;-83
2023/03/01 04:07:48;;;;;;;21.10;19.10;;;3.40;85.80;;;;;;10437916;28;20186;-82
2023/03/01 04:12:50;;;;;;;22.73;20.13;;;3.50;86.10;;;;;;10473657;28;20313;-82
2023/03/01 04:17:55;;;;;;;22.90;20.47;;;3.50;84.80;;;;;;10451255;28;20218;-82
2023/03/01 04:23:08;;;;;;;21.90;19.70;;;3.50;85.60;;;;;;10437926;28;20587;-82
2023/03/01 04:28:10;;;;;;;22.20;19.93;;;3.50;86.20;;;;;;10471895;28;20224;-82
2023/03/01 04:33:14;;;;;;;22.67;20.50;;;3.50;85.10;;;;;;10474845;28;20247;-82
2023/03/01 04:38:17;;;;;;;22.90;20.57;;;3.60;85.50;;;;;;10499034;28;20223;-82
2023/03/01 04:43:19;;;;;;;22.50;20.27;;;3.60;85.00;;;;;;10475234;28;20660;-82
2023/03/01 04:48:22;;;;;;;22.83;20.53;;;3.60;86.30;;;;;;10439381;28;20508;-82
2023/03/01 04:53:24;;;;;;;22.33;20.00;;;3.70;84.40;;;;;;10453292;28;20295;-82
2023/03/01 04:58:28;;;;;;;22.00;19.70;;;3.70;85.40;;;;;;10468276;28;20214;-84
2023/03/01 05:03:31;;;;;;;23.10;20.87;;;3.70;85.40;;;;;;10482118;28;20221;-83
2023/03/01 05:08:34;;;;;;;23.57;21.37;;;3.70;85.50;;;;;;10433522;28;20262;-84
2023/03/01 05:13:36;;;;;;;24.60;22.10;;;3.80;85.70;;;;;;10452292;28;20306;-84
2023/03/01 05:18:41;;;;;;;24.57;22.07;;;3.90;85.70;;;;;;10459856;28;20230;-84
2023/03/01 05:23:43;;;;;;;23.17;20.87;;;3.90;85.20;;;;;;10471534;28;20224;-84
2023/03/01 05:28:46;;;;;;;27.60;21.53;;;4.00;85.90;;;;;;10435910;28;20249;-84
2023/03/01 05:33:52;;;;;;;24.97;22.40;;;4.10;86.00;;;;;;10447412;28;20228;-85
2023/03/01 05:39:00;;;;;;;24.33;21.73;;;4.10;84.70;;;;;;10460647;28;20277;-83
2023/03/01 05:44:04;;;;;;;24.77;22.17;;;4.20;85.50;;;;;;10496400;28;20215;-85
2023/03/01 05:49:08;;;;;;;23.80;21.40;;;4.30;85.70;;;;;;10431871;28;20208;-84
2023/03/01 05:54:10;;;;;;;25.07;22.57;;;4.30;85.90;;;;;;10432163;28;20271;-84
2023/03/01 05:59:13;;;;;;;22.70;20.43;;;4.40;84.70;;;;;;10461531;28;20225;-83
2023/03/01 06:04:17;;;;;;;24.67;22.10;;;4.40;84.30;;;;;;10461507;28;20216;-82
2023/03/01 06:09:21;;;;;;;25.63;23.07;;;4.40;84.30;;;;;;10475540;28;20617;-81
2023/03/01 06:14:24;;;;;;;24.50;22.10;;;4.40;84.60;;;;;;10484132;28;20289;-84
2023/03/01 06:19:27;;;;;;;25.47;22.70;;;4.40;84.00;;;;;;10444759;28;20217;-84
2023/03/01 06:24:29;;;;;;;24.20;21.60;;;4.40;83.80;;;;;;10449956;28;20591;-83
2023/03/01 06:29:32;;;;;;;24.67;22.07;;;4.50;82.80;;;;;;10485372;28;20244;-82
2023/03/01 06:34:35;;;;;;;26.53;23.77;;;4.50;84.30;;;;;;10479487;28;20227;-82
2023/03/01 06:39:37;;;;;;;24.20;21.50;;;4.50;84.60;;;;;;10478000;28;20215;-82
2023/03/01 06:44:39;;;;;;;24.07;21.57;;;4.50;84.70;;;;;;10456688;28;20719;-82
2023/03/01 06:49:43;;;;;;;23.27;20.87;;;4.60;82.50;;;;;;10448262;28;20269;-82
2023/03/01 06:54:45;;;;;;;23.20;20.80;;;4.50;82.90;;;;;;10443491;28;20321;-82
2023/03/01 06:59:47;;;;;;;25.27;22.70;;;4.50;82.60;;;;;;10456610;28;20212;-82
2023/03/01 07:04:51;;;;;;;25.00;22.50;;;4.50;82.80;;;;;;10432093;28;20256;-82
2023/03/01 07:09:54;;;;;;;27.03;23.07;;;4.40;82.70;;;;;;10455652;28;20248;-83
2023/03/01 07:14:56;;;;;;;24.13;21.57;;;4.40;83.30;;;;;;10468769;28;20222;-82
2023/03/01 07:19:59;;;;;;;26.43;23.60;;;4.40;82.70;;;;;;10449110;28;20222;-82
2023/03/01 07:25:01;;;;;;;25.13;22.43;;;4.30;83.10;;;;;;10458549;28;20580;-83
2023/03/01 07:30:04;;;;;;;25.67;23.07;;;4.20;83.20;;;;;;10467378;28;20668;-83
2023/03/01 07:35:09;;;;;;;25.53;22.93;;;4.20;83.80;;;;;;10461133;28;20222;-83
2023/03/01 07:40:12;;;;;;;26.40;23.60;;;4.20;83.70;;;;;;10470719;28;20226;-83
2023/03/01 07:45:14;;;;;;;25.40;23.00;;;4.20;83.00;;;;;;10475993;28;20273;-83
2023/03/01 07:50:18;;;;;;;28.77;23.93;;;4.20;84.00;;;;;;10484096;28;20187;-83
2023/03/01 07:55:20;;;;;;;27.10;23.47;;;4.20;84.60;;;;;;10510885;28;20230;-83
2023/03/01 08:00:23;;;;;;;26.23;23.43;;;4.20;84.80;;;;;;10490005;28;20243;-83
2023/03/01 08:05:26;;;;;;;28.20;24.20;;;4.30;84.50;;;;;;10512537;28;20219;-83
2023/03/01 08:10:28;;;;;;;25.30;22.57;;;4.40;83.70;;;;;;10457365;28;20200;-83
2023/03/01 08:15:30;;;;;;;26.60;23.90;;;4.40;83.20;;;;;;10449064;28;20218;-83
2023/03/01 08:20:34;;;;;;;34.10;24.40;;;4.40;83.50;;;;;;10449052;28;20307;-83
2023/03/01 08:25:36;;;;;;;26.40;23.60;;;4.50;84.00;;;;;;10474727;28;20243;-83
2023/03/01 08:30:38;;;;;;;27.83;24.93;;;4.50;83.30;;;;;;10459778;28;20207;-83
2023/03/01 08:35:41;;;;;;;26.47;23.77;;;4.50;83.50;;;;;;10393802;22;20304;-79
2023/03/01 08:40:44;;;;;;;28.97;25.20;;;4.60;83.70;;;;;;10366026;28;20218;-80
2023/03/01 08:45:49;;;;;;;27.90;25.00;;;4.70;83.90;;;;;;10353273;28;20647;-80
2023/03/01 08:50:54;;;;;;;26.70;23.90;;;4.90;83.50;;;;;;10358416;28;20199;-78
2023/03/01 08:55:56;;;;;;;26.63;23.70;;;5.00;83.10;;;;;;10364639;28;20219;-81
2023/03/01 09:00:58;;;;;;;26.97;24.13;;;5.20;82.10;;;;;;10371265;28;20718;-80
2023/03/01 09:06:02;;;;;;;25.80;22.70;;;5.30;82.40;;;;;;10369811;28;20203;-81
2023/03/01 09:11:10;;;;;;;26.70;23.40;;;5.50;82.30;;;;;;10373038;28;20323;-81
2023/03/01 09:16:13;;;;;;;26.77;23.97;;;5.70;81.50;;;;;;10360609;28;20207;-82
2023/03/01 09:21:18;;;;;;;28.40;25.23;;;5.80;80.50;;;;;;10335822;28;20340;-82
2023/03/01 09:26:23;;;;;;;25.57;22.90;;;5.90;79.70;;;;;;10365743;28;20293;-81
2023/03/01 09:31:25;;;;;;;27.40;24.60;;;6.00;79.30;;;;;;10373908;28;20220;-81
2023/03/01 09:36:29;;;;;;;27.57;24.67;;;6.00;78.00;;;;;;10442437;28;20695;-82
2023/03/01 09:41:51;;;;;;;27.27;24.40;;;6.10;80.40;;;;;;10393191;28;20307;-81
2023/03/01 09:46:53;;;;;;;25.53;23.03;;;6.30;77.30;;;;;;10428078;28;20229;-83
2023/03/01 09:52:00;;;;;;;27.37;24.57;;;6.40;78.60;;;;;;10443564;28;20224;-81
2023/03/01 09:57:18;;;;;;;27.43;24.50;;;6.50;77.50;;;;;;10439129;28;20221;-80
2023/03/01 10:02:31;;;;;;;24.97;22.37;;;6.60;75.70;;;;;;10419034;28;20332;-82
2023/03/01 10:07:45;;;;;;;25.93;23.33;;;6.70;75.80;;;;;;10416937;28;20277;-82
2023/03/01 10:12:47;;;;;;;25.00;22.50;;;6.70;75.40;;;;;;10391767;28;20246;-82
2023/03/01 10:17:52;;;;;;;25.93;23.23;;;6.70;75.80;;;;;;10451361;28;20699;-82
2023/03/01 10:22:56;;;;;;;25.17;22.50;;;6.60;76.60;;;;;;10445481;28;20271;-82
2023/03/01 10:28:06;;;;;;;23.30;20.90;;;6.60;75.20;;;;;;10400630;28;20658;-81
2023/03/01 10:33:16;;;;;;;25.63;23.00;;;6.50;77.20;;;;;;10418894;28;20228;-80
2023/03/01 10:38:20;;;;;;;24.20;21.80;;;6.60;75.50;;;;;;10418264;28;20648;-82
2023/03/01 10:43:23;;;;;;;24.47;21.87;;;6.50;76.60;;;;;;10408668;28;20210;-81
2023/03/01 10:48:28;;;;;;;23.80;21.20;;;6.50;76.60;;;;;;10432070;28;20505;-82
2023/03/01 10:53:34;;;;;;;25.97;23.17;;;6.50;75.70;;;;;;10403419;28;20245;-79
2023/03/01 10:58:38;;;;;;;24.03;21.57;;;6.50;76.10;;;;;;10462129;28;20236;-82
2023/03/01 11:03:40;;;;;;;24.87;21.97;;;6.50;74.90;;;;;;10443865;28;20686;-83
2023/03/01 11:08:45;;;;;;;24.47;21.90;;;6.50;76.50;;;;;;10429434;28;20616;-81
2023/03/01 11:13:54;;;;;;;23.27;20.87;;;6.50;76.70;;;;;;10414133;28;20233;-81
2023/03/01 11:18:58;;;;;;;25.70;22.60;;;6.60;75.80;;;;;;10430735;28;20240;-84
2023/03/01 11:24:04;;;;;;;22.20;20.00;;;6.60;77.50;;;;;;10420401;28;20214;-81
2023/03/01 11:29:17;;;;;;;22.37;19.90;;;6.70;75.30;;;;;;10431665;28;20218;-81
2023/03/01 11:34:28;;;;;;;24.83;22.23;;;6.70;75.50;;;;;;10428279;28;20244;-81
2023/03/01 11:39:38;;;;;;;23.93;21.33;;;6.70;76.40;;;;;;10451696;28;20216;-77
2023/03/01 11:44:44;;;;;;;23.07;20.63;;;6.80;78.70;;;;;;10422022;28;20221;-77
2023/03/01 11:50:07;;;;;;;25.17;22.57;;;6.90;77.60;;;;;;10444832;28;20193;-79
2023/03/01 11:55:25;;;;;;;25.03;22.43;;;7.00;76.70;;;;;;10409224;28;20618;-77
2023/03/01 12:00:45;;;;;;;23.00;20.70;;;7.00;77.50;;;;;;10416069;28;20222;-78
2023/03/01 12:06:25;;;;;;;23.90;21.50;;;7.10;78.70;;;;;;10396975;28;20217;-80
2023/03/01 12:11:42;;;;;;;23.40;21.00;;;7.20;78.80;;;;;;10359585;28;20222;-80
2023/03/01 12:17:06;;;;;;;22.93;20.10;;;7.20;77.90;;;;;;10415979;28;20202;-78
2023/03/01 12:22:25;;;;;;;21.40;19.30;;;7.40;74.40;;;;;;10448607;28;20221;-79
2023/03/01 12:27:52;;;;;;;23.33;21.13;;;7.40;75.80;;;;;;10420847;28;20198;-78
2023/03/01 12:33:07;;;;;;;23.10;20.20;;;7.50;73.90;;;;;;10397838;28;20222;-81
2023/03/01 12:38:25;;;;;;;23.07;20.67;;;7.50;75.40;;;;;;10454584;28;20683;-81
2023/03/01 12:43:42;;;;;;;21.40;19.30;;;7.50;76.30;;;;;;10420355;28;20221;-82
2023/03/01 12:48:57;;;;;;;20.90;18.90;;;7.60;73.90;;;;;;10428833;28;20197;-83
2023/03/01 12:54:05;;;;;;;22.27;20.00;;;7.60;76.30;;;;;;10415706;28;20320;-83
2023/03/01 12:59:16;;;;;;;21.60;19.30;;;7.70;74.70;;;;;;10440049;28;20218;-83
2023/03/01 13:04:38;;;;;;;20.40;18.30;;;7.70;76.00;;;;;;10462367;28;20671;-81
2023/03/01 13:09:45;;;;;;;20.00;17.73;;;7.80;76.80;;;;;;10436526;28;20199;-81
2023/03/01 13:14:49;;;;;;;20.00;18.07;;;7.90;75.10;;;;;;10424332;28;20252;-83
2023/03/01 13:19:57;;;;;;;20.03;18.07;;;7.90;75.70;;;;;;10408106;28;20308;-81
2023/03/01 13:25:13;;;;;;;19.67;17.70;;;8.00;74.90;;;;;;10444968;28;20222;-81
2023/03/01 13:30:42;;;;;;;18.90;17.10;;;8.00;76.90;;;;;;10441941;28;20186;-81
2023/03/01 13:35:45;;;;;;;19.23;17.33;;;8.00;76.60;;;;;;10446020;28;20235;-80
2023/03/01 13:41:01;;;;;;;20.73;17.87;;;8.10;75.70;;;;;;10434857;28;20225;-81
2023/03/01 13:46:11;;;;;;;22.27;18.63;;;8.20;75.70;;;;;;10404317;28;20252;-80
2023/03/01 13:51:14;;;;;;;22.70;20.20;;;8.20;76.30;;;;;;10445846;28;20209;-81
2023/03/01 13:56:18;;;;;;;23.00;20.70;;;8.30;74.90;;;;;;10413724;28;20623;-81
2023/03/01 14:01:27;;;;;;;22.67;20.43;;;8.40;75.90;;;;;;10389235;28;20228;-81
2023/03/01 14:06:31;;;;;;;22.80;20.40;;;8.50;74.50;;;;;;10414581;28;20192;-81
2023/03/01 14:11:54;;;;;;;22.60;20.37;;;8.50;74.40;;;;;;10414112;28;20206;-80
2023/03/01 14:17:08;;;;;;;25.57;21.33;;;8.50;74.50;;;;;;10439502;28;20195;-81
2023/03/01 14:22:19;;;;;;;29.07;20.60;;;8.50;74.20;;;;;;10403157;28;20230;-81
2023/03/01 14:27:22;;;;;;;24.10;21.60;;;8.50;74.10;;;;;;10390375;28;20213;-82
2023/03/01 14:32:28;;;;;;;24.30;20.60;;;8.50;75.70;;;;;;10427922;28;20212;-84
2023/03/01 14:37:33;;;;;;;25.70;23.10;;;8.50;76.80;;;;;;10440948;28;20351;-85
2023/03/01 14:42:52;;;;;;;23.10;20.60;;;8.50;76.70;;;;;;10453366;22;20746;-84
2023/03/01 14:48:30;;;;;;;23.40;19.87;;;8.60;77.30;;;;;;10523417;28;20250;-83
2023/03/01 14:54:21;;;;;;;24.30;21.33;;;8.60;76.60;;;;;;10387962;28;20281;-81
2023/03/01 14:59:30;;;;;;;23.43;21.20;;;8.60;76.10;;;;;;10469918;28;20584;-82
2023/03/01 15:05:02;;;;;;;25.00;21.30;;;8.60;77.50;;;;;;10459863;28;20251;-82
2023/03/01 15:10:42;;;;;;;23.47;20.97;;;8.60;75.20;;;;;;10482803;28;20197;-82
2023/03/01 15:16:03;;;;;;;23.87;21.27;;;8.60;75.90;;;;;;10501312;28;20315;-81
2023/03/01 15:21:29;;;;;;;24.37;21.43;;;8.60;76.50;;;;;;10482334;28;20227;-81
2023/03/01 15:26:38;;;;;;;24.03;21.53;;;8.60;77.30;;;;;;10482060;28;20306;-81
2023/03/01 15:31:40;;;;;;;23.70;21.40;;;8.60;76.70;;;;;;10500073;28;20754;-82
2023/03/01 15:36:44;;;;;;;24.67;21.83;;;8.60;77.80;;;;;;10502656;28;20201;-82
2023/03/01 15:41:49;;;;;;;25.43;22.70;;;8.70;77.00;;;;;;10461252;28;20229;-82
2023/03/01 15:46:51;;;;;;;23.27;19.97;;;8.60;76.90;;;;;;10454467;28;20201;-81
2023/03/01 15:52:09;;;;;;;23.30;20.80;;;8.70;74.30;;;;;;10485812;22;20663;-81
2023/03/01 15:57:14;;;;;;;22.97;20.53;;;8.70;76.40;;;;;;10474096;28;20606;-82
2023/03/01 16:02:16;;;;;;;22.43;20.20;;;8.60;77.80;;;;;;10469823;28;20257;-82
2023/03/01 16:07:19;;;;;;;23.73;21.33;;;8.60;77.40;;;;;;10410623;28;20205;-82
2023/03/01 16:12:23;;;;;;;24.70;20.90;;;8.60;73.70;;;;;;10447129;28;20226;-82
2023/03/01 16:17:26;;;;;;;23.57;21.17;;;8.60;76.80;;;;;;10441555;28;20504;-82
2023/03/01 16:22:28;;;;;;;21.77;19.47;;;8.50;76.50;;;;;;10428665;28;20222;-82
2023/03/01 16:27:32;;;;;;;22.83;20.53;;;8.50;74.70;;;;;;10417161;28;20198;-81
2023/03/01 16:32:34;;;;;;;22.97;20.60;;;8.50;75.20;;;;;;10434245;28;20230;-82
2023/03/01 16:37:36;;;;;;;22.37;20.17;;;8.40;74.90;;;;;;10433318;28;20285;-81
2023/03/01 16:42:40;;;;;;;23.90;19.90;;;8.40;76.30;;;;;;10447207;28;20755;-82
2023/03/01 16:47:42;;;;;;;22.80;20.60;;;8.30;77.10;;;;;;10421832;28;20215;-82
2023/03/01 16:52:45;;;;;;;24.07;21.53;;;8.30;76.50;;;;;;10433611;28;20683;-81
2023/03/01 16:57:48;;;;;;;21.03;18.83;;;8.20;77.90;;;;;;10443808;28;20693;-82
2023/03/01 17:08:29;;;;;;;24.63;20.90;;;8.10;76.30;;;;;;10441072;28;20284;-82
2023/03/01 17:13:35;;;;;;;23.53;20.67;;;8.00;76.10;;;;;;10430899;28;20241;-83
2023/03/01 17:18:38;;;;;;;22.33;20.03;;;8.00;78.50;;;;;;10459226;28;20258;-82
2023/03/01 17:23:43;;;;;;;23.50;21.00;;;7.90;79.00;;;;;;10448768;28;20226;-81
2023/03/01 17:28:50;;;;;;;26.07;20.17;;;7.90;77.50;;;;;;10417777;28;20204;-81
2023/03/01 17:33:52;;;;;;;21.87;19.67;;;7.80;77.40;;;;;;10457534;28;20253;-81
2023/03/01 17:38:54;;;;;;;21.97;19.70;;;7.70;77.70;;;;;;10443930;28;20874;-82
2023/03/01 17:43:58;;;;;;;23.83;21.30;;;7.60;77.80;;;;;;10462023;28;20233;-81
2023/03/01 17:49:05;;;;;;;22.50;20.13;;;7.40;78.40;;;;;;10440387;28;20205;-82
2023/03/01 17:54:07;;;;;;;24.43;21.70;;;7.20;79.00;;;;;;10466114;28;20226;-82
2023/03/01 17:59:11;;;;;;;31.40;27.77;;;7.00;79.90;;;;;;10408816;28;20243;-81
2023/03/01 18:04:13;;;;;;;47.30;39.40;;;6.80;79.90;;;;;;10405396;28;20321;-81
2023/03/01 18:09:15;;;;;;;33.33;27.73;;;6.60;80.70;;;;;;10414305;28;20259;-82
2023/03/01 18:14:18;;;;;;;33.50;29.93;;;6.50;80.90;;;;;;10414832;28;20225;-82
2023/03/01 18:19:20;;;;;;;39.63;32.70;;;6.40;81.40;;;;;;10437664;28;20249;-81
2023/03/01 18:24:23;;;;;;;32.97;27.07;;;6.30;81.50;;;;;;10422820;28;20218;-83
2023/03/01 18:29:27;;;;;;;42.10;33.97;;;6.20;82.10;;;;;;10407424;28;20205;-82
2023/03/01 18:34:29;;;;;;;25.83;22.40;;;6.10;82.30;;;;;;10442735;28;20229;-82
2023/03/01 18:39:31;;;;;;;25.27;22.60;;;6.10;82.60;;;;;;10402734;28;20580;-82
2023/03/01 18:44:42;;;;;;;25.77;22.50;;;6.00;82.90;;;;;;10391458;28;20215;-81
2023/03/01 18:49:57;;;;;;;26.47;23.37;;;5.80;83.20;;;;;;10424742;28;20185;-81
2023/03/01 18:55:18;;;;;;;26.53;22.30;;;5.70;83.40;;;;;;10435895;28;20226;-81
2023/03/01 19:20:45;;;;;;;30.23;27.03;;;5.40;84.40;;;;;;10341453;28;20232;-80
2023/03/01 19:58:04;;;;;;;28.93;25.87;;;5.10;84.90;;;;;;10677090;27;20274;-82
2023/03/01 20:03:11;;;;;;;28.00;24.97;;;5.00;84.90;;;;;;10667726;27;20580;-79
2023/03/01 20:08:15;;;;;;;29.00;26.00;;;4.90;85.40;;;;;;10694467;27;20192;-79
2023/03/01 20:13:19;;;;;;;26.40;23.50;;;4.90;85.80;;;;;;10685616;27;20213;-80
2023/03/01 20:18:22;;;;;;;26.40;23.70;;;4.90;85.40;;;;;;10646601;27;20223;-80
2023/03/01 20:23:25;;;;;;;28.70;25.40;;;4.90;85.80;;;;;;10670633;27;20222;-81
2023/03/01 20:28:27;;;;;;;28.00;25.00;;;4.90;86.10;;;;;;10686550;27;20296;-80
2023/03/01 20:33:30;;;;;;;27.80;24.80;;;5.00;86.60;;;;;;10630656;22;20331;-78
2023/03/01 20:38:35;;;;;;;27.23;23.60;;;5.00;86.70;;;;;;10530381;28;20204;-79
2023/03/01 20:43:38;;;;;;;27.00;22.97;;;5.20;86.50;;;;;;10512242;28;20646;-78
2023/03/01 20:48:42;;;;;;;29.80;25.10;;;5.10;86.80;;;;;;10465025;28;20205;-79
2023/03/01 20:53:46;;;;;;;27.47;24.53;;;5.20;87.30;;;;;;10478143;28;20776;-79
2023/03/01 20:58:48;;;;;;;26.90;24.10;;;5.20;87.00;;;;;;10471687;28;20198;-79
2023/03/01 21:03:50;;;;;;;28.87;24.53;;;5.10;87.10;;;;;;10496961;28;20212;-78
2023/03/01 21:08:54;;;;;;;26.90;24.07;;;5.10;87.10;;;;;;10467550;28;20197;-78
2023/03/01 21:13:56;;;;;;;30.10;25.43;;;5.10;87.10;;;;;;10477096;28;20241;-80
2023/03/01 21:19:00;;;;;;;31.10;26.97;;;5.10;87.00;;;;;;10465504;28;20201;-79
2023/03/01 21:24:04;;;;;;;29.30;25.83;;;5.00;87.40;;;;;;10462478;28;20217;-77
2023/03/01 21:29:06;;;;;;;34.53;26.70;;;5.10;87.20;;;;;;10487056;28;20215;-78
2023/03/01 21:34:13;;;;;;;33.37;26.80;;;5.10;87.30;;;;;;10491623;28;20221;-79
2023/03/01 21:39:16;;;;;;;54.33;30.30;;;5.00;88.40;;;;;;10478789;28;20196;-80
2023/03/01 21:44:18;;;;;;;74.23;34.47;;;5.00;88.00;;;;;;10466624;28;20228;-80
2023/03/01 21:49:21;;;;;;;30.00;25.33;;;5.00;87.90;;;;;;10472932;28;20311;-79
2023/03/01 21:54:24;;;;;;;29.83;25.10;;;5.00;87.40;;;;;;10469660;28;20217;-80
2023/03/01 21:59:27;;;;;;;28.10;25.10;;;5.00;87.90;;;;;;10494864;28;20205;-77
2023/03/01 22:04:29;;;;;;;29.70;26.00;;;5.00;87.30;;;;;;10478323;28;20223;-78
2023/03/01 22:09:34;;;;;;;28.50;25.27;;;4.90;88.10;;;;;;10460995;28;20196;-78
2023/03/01 22:14:37;;;;;;;30.37;26.00;;;4.90;88.30;;;;;;10462149;28;20221;-79
2023/03/01 22:19:39;;;;;;;31.90;25.80;;;4.80;88.60;;;;;;10489380;28;20231;-81
2023/03/01 22:24:45;;;;;;;26.80;23.93;;;4.80;88.50;;;;;;10504957;28;20212;-79
2023/03/01 22:29:47;;;;;;;26.60;23.40;;;4.80;88.70;;;;;;10476300;28;20624;-79
2023/03/01 22:34:52;;;;;;;28.07;25.07;;;4.70;88.50;;;;;;10484026;28;20372;-78
2023/03/01 22:40:02;;;;;;;27.27;24.47;;;4.60;89.00;;;;;;10489267;28;20199;-78
2023/03/01 22:45:04;;;;;;;29.03;25.87;;;4.50;89.10;;;;;;10474405;28;20215;-78
2023/03/01 22:50:08;;;;;;;27.90;25.03;;;4.50;89.50;;;;;;10488634;28;20187;-78
2023/03/01 22:55:11;;;;;;;28.20;25.07;;;4.50;89.80;;;;;;10478137;28;20220;-78
2023/03/01 23:00:14;;;;;;;31.50;26.10;;;4.50;89.90;;;;;;10473591;28;20644;-78
2023/03/01 23:05:16;;;;;;;28.90;25.80;;;4.50;89.70;;;;;;10464310;28;20215;-78
2023/03/01 23:10:20;;;;;;;28.07;25.13;;;4.50;89.90;;;;;;10486845;28;20198;-80
2023/03/01 23:15:22;;;;;;;28.03;25.00;;;4.40;89.60;;;;;;10490292;28;20222;-78
2023/03/01 23:20:24;;;;;;;29.47;26.17;;;4.40;90.10;;;;;;10475944;28;20201;-79
2023/03/01 23:25:28;;;;;;;27.97;25.07;;;4.30;90.20;;;;;;10502077;28;20242;-79
2023/03/01 23:30:30;;;;;;;29.03;25.90;;;4.40;90.20;;;;;;10485588;28;20204;-78
2023/03/01 23:35:32;;;;;;;32.57;25.40;;;4.30;90.10;;;;;;10468030;28;20310;-78
2023/03/01 23:40:38;;;;;;;28.93;25.67;;;4.20;90.30;;;;;;10480170;28;20199;-78
2023/03/01 23:45:41;;;;;;;27.80;24.87;;;4.20;90.30;;;;;;10460251;28;20216;-80
2023/03/01 23:50:44;;;;;;;29.40;24.50;;;4.20;90.40;;;;;;10486549;28;20557;-80
2023/03/01 23:55:51;;;;;;;30.23;26.07;;;4.10;90.30;;;;;;10468996;28;20269;-79
